sensor_id;sensor_type;location;lat;lon;timestamp;P1;durP1;ratioP1;P2;durP2;ratioP2
61471;SDS011;47337;54.068;12.114;2023-09-12T00:00:46;24.35;;;13.85;;
61471;SDS011;47337;54.068;12.114;2023-09-12T00:03:18;24.55;;;13.35;;
61471;SDS011;47337;54.068;12.114;2023-09-12T00:05:50;24.05;;;14.20;;
61471;SDS011;47337;54.068;12.114;2023-09-12T00:08:18;21.65;;;13.40;;
61471;SDS011;47337;54.068;12.114;2023-09-12T00:10:46;26.60;;;13.88;;
61471;SDS011;47337;54.068;12.114;2023-09-12T00:13:12;22.50;;;13.23;;
61471;SDS011;47337;54.068;12.114;2023-09-12T00:15:37;29.20;;;13.57;;
61471;SDS011;47337;54.068;12.114;2023-09-12T00:18:03;24.45;;;13.68;;
61471;SDS011;47337;54.068;12.114;2023-09-12T00:20:30;27.75;;;14.63;;
61471;SDS011;47337;54.068;12.114;2023-09-12T00:22:56;31.58;;;14.93;;
61471;SDS011;47337;54.068;12.114;2023-09-12T00:25:21;28.35;;;14.73;;
61471;SDS011;47337;54.068;12.114;2023-09-12T00:27:48;25.80;;;15.05;;
61471;SDS011;47337;54.068;12.114;2023-09-12T00:30:14;24.83;;;14.90;;
61471;SDS011;47337;54.068;12.114;2023-09-12T00:32:42;23.50;;;13.90;;
61471;SDS011;47337;54.068;12.114;2023-09-12T00:35:10;29.10;;;14.98;;
61471;SDS011;47337;54.068;12.114;2023-09-12T00:37:36;27.77;;;14.80;;
61471;SDS011;47337;54.068;12.114;2023-09-12T00:40:01;29.23;;;14.38;;
61471;SDS011;47337;54.068;12.114;2023-09-12T00:42:26;24.02;;;14.00;;
61471;SDS011;47337;54.068;12.114;2023-09-12T00:44:52;26.85;;;14.60;;
61471;SDS011;47337;54.068;12.114;2023-09-12T00:47:17;30.17;;;14.93;;
61471;SDS011;47337;54.068;12.114;2023-09-12T00:49:44;21.55;;;13.07;;
61471;SDS011;47337;54.068;12.114;2023-09-12T00:52:11;28.02;;;13.70;;
61471;SDS011;47337;54.068;12.114;2023-09-12T00:54:38;28.33;;;14.70;;
61471;SDS011;47337;54.068;12.114;2023-09-12T00:57:04;23.45;;;12.68;;
61471;SDS011;47337;54.068;12.114;2023-09-12T00:59:30;28.63;;;14.23;;
61471;SDS011;47337;54.068;12.114;2023-09-12T01:01:56;23.17;;;13.68;;
61471;SDS011;47337;54.068;12.114;2023-09-12T01:04:22;23.00;;;13.35;;
61471;SDS011;47337;54.068;12.114;2023-09-12T01:06:47;24.42;;;12.77;;
61471;SDS011;47337;54.068;12.114;2023-09-12T01:09:16;25.10;;;13.77;;
61471;SDS011;47337;54.068;12.114;2023-09-12T01:11:42;34.42;;;13.50;;
61471;SDS011;47337;54.068;12.114;2023-09-12T01:14:09;28.88;;;12.93;;
61471;SDS011;47337;54.068;12.114;2023-09-12T01:16:37;25.90;;;12.93;;
61471;SDS011;47337;54.068;12.114;2023-09-12T01:19:03;27.40;;;12.73;;
61471;SDS011;47337;54.068;12.114;2023-09-12T01:24:39;22.10;;;12.93;;
61471;SDS011;47337;54.068;12.114;2023-09-12T01:27:50;20.90;;;12.15;;
61471;SDS011;47337;54.068;12.114;2023-09-12T01:30:17;22.52;;;11.32;;
61471;SDS011;47337;54.068;12.114;2023-09-12T01:32:45;19.23;;;11.95;;
61471;SDS011;47337;54.068;12.114;2023-09-12T01:35:12;29.63;;;12.23;;
61471;SDS011;47337;54.068;12.114;2023-09-12T01:37:37;25.38;;;12.70;;
61471;SDS011;47337;54.068;12.114;2023-09-12T01:40:03;20.60;;;11.80;;
61471;SDS011;47337;54.068;12.114;2023-09-12T01:42:43;24.40;;;12.18;;
61471;SDS011;47337;54.068;12.114;2023-09-12T01:45:10;25.80;;;12.05;;
61471;SDS011;47337;54.068;12.114;2023-09-12T01:47:43;28.50;;;12.02;;
61471;SDS011;47337;54.068;12.114;2023-09-12T01:50:12;26.70;;;12.90;;
61471;SDS011;47337;54.068;12.114;2023-09-12T01:52:38;23.42;;;12.23;;
61471;SDS011;47337;54.068;12.114;2023-09-12T01:55:05;21.98;;;12.43;;
61471;SDS011;47337;54.068;12.114;2023-09-12T01:57:34;25.80;;;12.55;;
61471;SDS011;47337;54.068;12.114;2023-09-12T02:00:00;21.48;;;11.25;;
61471;SDS011;47337;54.068;12.114;2023-09-12T02:02:26;18.65;;;11.25;;
61471;SDS011;47337;54.068;12.114;2023-09-12T02:04:58;33.17;;;12.15;;
61471;SDS011;47337;54.068;12.114;2023-09-12T02:07:33;26.15;;;12.75;;
61471;SDS011;47337;54.068;12.114;2023-09-12T02:10:01;29.05;;;12.55;;
61471;SDS011;47337;54.068;12.114;2023-09-12T02:12:26;29.48;;;12.80;;
61471;SDS011;47337;54.068;12.114;2023-09-12T02:14:52;20.30;;;11.07;;
61471;SDS011;47337;54.068;12.114;2023-09-12T02:17:19;25.23;;;11.35;;
61471;SDS011;47337;54.068;12.114;2023-09-12T02:19:46;28.23;;;11.85;;
61471;SDS011;47337;54.068;12.114;2023-09-12T02:22:13;25.63;;;11.60;;
61471;SDS011;47337;54.068;12.114;2023-09-12T02:24:38;28.25;;;12.00;;
61471;SDS011;47337;54.068;12.114;2023-09-12T02:27:08;24.65;;;11.82;;
61471;SDS011;47337;54.068;12.114;2023-09-12T02:29:36;23.92;;;11.85;;
61471;SDS011;47337;54.068;12.114;2023-09-12T02:32:03;22.00;;;11.73;;
61471;SDS011;47337;54.068;12.114;2023-09-12T02:34:29;20.83;;;11.23;;
61471;SDS011;47337;54.068;12.114;2023-09-12T02:36:54;23.35;;;12.15;;
61471;SDS011;47337;54.068;12.114;2023-09-12T02:39:22;19.48;;;12.02;;
61471;SDS011;47337;54.068;12.114;2023-09-12T02:41:51;26.77;;;12.32;;
61471;SDS011;47337;54.068;12.114;2023-09-12T02:44:16;24.67;;;12.10;;
61471;SDS011;47337;54.068;12.114;2023-09-12T02:46:44;27.58;;;12.60;;
61471;SDS011;47337;54.068;12.114;2023-09-12T02:49:09;26.15;;;14.48;;
61471;SDS011;47337;54.068;12.114;2023-09-12T02:51:38;28.73;;;15.48;;
61471;SDS011;47337;54.068;12.114;2023-09-12T02:54:07;25.00;;;13.50;;
61471;SDS011;47337;54.068;12.114;2023-09-12T02:56:34;25.58;;;16.05;;
61471;SDS011;47337;54.068;12.114;2023-09-12T02:58:59;29.40;;;17.83;;
61471;SDS011;47337;54.068;12.114;2023-09-12T03:01:25;30.05;;;19.42;;
61471;SDS011;47337;54.068;12.114;2023-09-12T03:03:53;29.45;;;20.20;;
61471;SDS011;47337;54.068;12.114;2023-09-12T03:06:22;32.88;;;18.98;;
61471;SDS011;47337;54.068;12.114;2023-09-12T03:08:47;31.27;;;19.77;;
61471;SDS011;47337;54.068;12.114;2023-09-12T03:11:17;32.95;;;21.35;;
61471;SDS011;47337;54.068;12.114;2023-09-12T03:13:43;44.83;;;23.60;;
61471;SDS011;47337;54.068;12.114;2023-09-12T03:16:11;35.67;;;23.42;;
61471;SDS011;47337;54.068;12.114;2023-09-12T03:18:40;38.63;;;26.05;;
61471;SDS011;47337;54.068;12.114;2023-09-12T03:21:08;37.10;;;24.27;;
61471;SDS011;47337;54.068;12.114;2023-09-12T03:23:33;40.90;;;24.50;;
61471;SDS011;47337;54.068;12.114;2023-09-12T03:26:04;36.33;;;23.98;;
61471;SDS011;47337;54.068;12.114;2023-09-12T03:28:32;35.28;;;25.40;;
61471;SDS011;47337;54.068;12.114;2023-09-12T03:31:11;37.80;;;25.38;;
61471;SDS011;47337;54.068;12.114;2023-09-12T03:33:40;42.70;;;27.52;;
61471;SDS011;47337;54.068;12.114;2023-09-12T03:36:12;42.13;;;28.60;;
61471;SDS011;47337;54.068;12.114;2023-09-12T03:38:38;43.28;;;27.08;;
61471;SDS011;47337;54.068;12.114;2023-09-12T03:41:03;44.00;;;28.33;;
61471;SDS011;47337;54.068;12.114;2023-09-12T03:43:29;47.35;;;30.98;;
61471;SDS011;47337;54.068;12.114;2023-09-12T03:45:55;46.20;;;31.45;;
61471;SDS011;47337;54.068;12.114;2023-09-12T03:48:20;44.65;;;28.40;;
61471;SDS011;47337;54.068;12.114;2023-09-12T03:50:46;56.70;;;35.10;;
61471;SDS011;47337;54.068;12.114;2023-09-12T03:53:11;45.40;;;32.38;;
61471;SDS011;47337;54.068;12.114;2023-09-12T03:55:38;51.45;;;33.10;;
61471;SDS011;47337;54.068;12.114;2023-09-12T03:58:04;41.03;;;29.67;;
61471;SDS011;47337;54.068;12.114;2023-09-12T04:00:29;49.58;;;30.65;;
61471;SDS011;47337;54.068;12.114;2023-09-12T04:02:54;54.42;;;34.28;;
61471;SDS011;47337;54.068;12.114;2023-09-12T04:05:20;46.17;;;32.17;;
61471;SDS011;47337;54.068;12.114;2023-09-12T04:07:47;45.85;;;29.83;;
61471;SDS011;47337;54.068;12.114;2023-09-12T04:10:13;44.38;;;30.63;;
61471;SDS011;47337;54.068;12.114;2023-09-12T04:12:43;43.55;;;29.15;;
61471;SDS011;47337;54.068;12.114;2023-09-12T04:15:08;45.20;;;30.42;;
61471;SDS011;47337;54.068;12.114;2023-09-12T04:17:34;43.08;;;29.13;;
61471;SDS011;47337;54.068;12.114;2023-09-12T04:19:59;44.75;;;28.35;;
61471;SDS011;47337;54.068;12.114;2023-09-12T04:22:25;42.47;;;28.33;;
61471;SDS011;47337;54.068;12.114;2023-09-12T04:24:50;50.53;;;29.50;;
61471;SDS011;47337;54.068;12.114;2023-09-12T04:27:15;51.53;;;29.63;;
61471;SDS011;47337;54.068;12.114;2023-09-12T04:29:41;50.72;;;32.85;;
61471;SDS011;47337;54.068;12.114;2023-09-12T04:32:08;56.78;;;35.45;;
61471;SDS011;47337;54.068;12.114;2023-09-12T04:34:37;51.08;;;31.98;;
61471;SDS011;47337;54.068;12.114;2023-09-12T04:37:03;55.95;;;36.58;;
61471;SDS011;47337;54.068;12.114;2023-09-12T04:39:30;56.05;;;34.65;;
61471;SDS011;47337;54.068;12.114;2023-09-12T04:41:56;58.30;;;38.08;;
61471;SDS011;47337;54.068;12.114;2023-09-12T04:44:24;44.15;;;30.38;;
61471;SDS011;47337;54.068;12.114;2023-09-12T04:46:49;62.97;;;39.92;;
61471;SDS011;47337;54.068;12.114;2023-09-12T04:49:17;59.38;;;34.67;;
61471;SDS011;47337;54.068;12.114;2023-09-12T04:51:42;61.47;;;40.25;;
61471;SDS011;47337;54.068;12.114;2023-09-12T04:54:08;59.30;;;36.55;;
61471;SDS011;47337;54.068;12.114;2023-09-12T04:56:33;65.78;;;39.83;;
61471;SDS011;47337;54.068;12.114;2023-09-12T04:58:59;50.95;;;32.38;;
61471;SDS011;47337;54.068;12.114;2023-09-12T05:01:24;61.15;;;35.83;;
61471;SDS011;47337;54.068;12.114;2023-09-12T05:03:51;51.75;;;33.95;;
61471;SDS011;47337;54.068;12.114;2023-09-12T05:06:18;66.80;;;43.15;;
61471;SDS011;47337;54.068;12.114;2023-09-12T05:08:44;62.17;;;37.38;;
61471;SDS011;47337;54.068;12.114;2023-09-12T05:11:09;63.47;;;41.47;;
61471;SDS011;47337;54.068;12.114;2023-09-12T05:13:37;66.55;;;38.40;;
61471;SDS011;47337;54.068;12.114;2023-09-12T05:16:02;74.40;;;41.83;;
61471;SDS011;47337;54.068;12.114;2023-09-12T05:18:30;69.28;;;40.22;;
61471;SDS011;47337;54.068;12.114;2023-09-12T05:20:57;65.80;;;38.00;;
61471;SDS011;47337;54.068;12.114;2023-09-12T05:23:23;72.22;;;41.80;;
61471;SDS011;47337;54.068;12.114;2023-09-12T05:25:53;78.75;;;42.88;;
61471;SDS011;47337;54.068;12.114;2023-09-12T05:28:18;79.10;;;42.92;;
61471;SDS011;47337;54.068;12.114;2023-09-12T05:30:53;70.05;;;38.10;;
61471;SDS011;47337;54.068;12.114;2023-09-12T05:33:18;75.18;;;42.97;;
61471;SDS011;47337;54.068;12.114;2023-09-12T05:35:44;62.58;;;37.65;;
61471;SDS011;47337;54.068;12.114;2023-09-12T05:38:10;75.53;;;40.85;;
61471;SDS011;47337;54.068;12.114;2023-09-12T05:40:38;66.72;;;37.25;;
61471;SDS011;47337;54.068;12.114;2023-09-12T05:43:03;68.57;;;38.97;;
61471;SDS011;47337;54.068;12.114;2023-09-12T05:45:29;66.75;;;37.83;;
61471;SDS011;47337;54.068;12.114;2023-09-12T05:47:57;59.60;;;36.03;;
61471;SDS011;47337;54.068;12.114;2023-09-12T05:50:27;55.47;;;34.90;;
61471;SDS011;47337;54.068;12.114;2023-09-12T05:52:52;56.53;;;34.40;;
61471;SDS011;47337;54.068;12.114;2023-09-12T05:55:18;60.72;;;35.72;;
61471;SDS011;47337;54.068;12.114;2023-09-12T05:57:43;57.15;;;35.28;;
61471;SDS011;47337;54.068;12.114;2023-09-12T06:00:09;58.35;;;34.40;;
61471;SDS011;47337;54.068;12.114;2023-09-12T06:02:39;49.25;;;31.40;;
61471;SDS011;47337;54.068;12.114;2023-09-12T06:05:04;45.58;;;28.35;;
61471;SDS011;47337;54.068;12.114;2023-09-12T06:07:31;47.75;;;30.00;;
61471;SDS011;47337;54.068;12.114;2023-09-12T06:09:57;52.28;;;31.08;;
61471;SDS011;47337;54.068;12.114;2023-09-12T06:12:22;46.42;;;28.73;;
61471;SDS011;47337;54.068;12.114;2023-09-12T06:14:48;43.15;;;27.08;;
61471;SDS011;47337;54.068;12.114;2023-09-12T06:17:14;40.13;;;26.65;;
61471;SDS011;47337;54.068;12.114;2023-09-12T06:19:42;36.88;;;23.40;;
61471;SDS011;47337;54.068;12.114;2023-09-12T06:22:07;40.00;;;26.45;;
61471;SDS011;47337;54.068;12.114;2023-09-12T06:24:35;41.00;;;25.92;;
61471;SDS011;47337;54.068;12.114;2023-09-12T06:27:00;37.88;;;23.55;;
61471;SDS011;47337;54.068;12.114;2023-09-12T06:29:26;38.30;;;24.95;;
61471;SDS011;47337;54.068;12.114;2023-09-12T06:31:51;37.90;;;25.65;;
61471;SDS011;47337;54.068;12.114;2023-09-12T06:34:16;40.50;;;25.98;;
61471;SDS011;47337;54.068;12.114;2023-09-12T06:36:42;36.90;;;25.95;;
61471;SDS011;47337;54.068;12.114;2023-09-12T06:39:10;39.45;;;26.98;;
61471;SDS011;47337;54.068;12.114;2023-09-12T06:41:35;37.58;;;25.15;;
61471;SDS011;47337;54.068;12.114;2023-09-12T06:44:03;36.90;;;27.50;;
61471;SDS011;47337;54.068;12.114;2023-09-12T06:46:30;39.22;;;26.55;;
61471;SDS011;47337;54.068;12.114;2023-09-12T06:48:56;38.67;;;26.40;;
61471;SDS011;47337;54.068;12.114;2023-09-12T06:51:24;34.28;;;25.02;;
61471;SDS011;47337;54.068;12.114;2023-09-12T06:53:50;41.05;;;26.45;;
61471;SDS011;47337;54.068;12.114;2023-09-12T06:56:16;40.85;;;26.00;;
61471;SDS011;47337;54.068;12.114;2023-09-12T06:58:45;36.75;;;25.85;;
61471;SDS011;47337;54.068;12.114;2023-09-12T07:01:10;33.33;;;24.00;;
61471;SDS011;47337;54.068;12.114;2023-09-12T07:03:36;39.83;;;26.42;;
61471;SDS011;47337;54.068;12.114;2023-09-12T07:06:03;43.42;;;28.42;;
61471;SDS011;47337;54.068;12.114;2023-09-12T07:08:30;40.33;;;27.40;;
61471;SDS011;47337;54.068;12.114;2023-09-12T07:11:01;40.67;;;28.00;;
61471;SDS011;47337;54.068;12.114;2023-09-12T07:13:31;40.90;;;27.95;;
61471;SDS011;47337;54.068;12.114;2023-09-12T07:15:57;43.40;;;28.13;;
61471;SDS011;47337;54.068;12.114;2023-09-12T07:18:22;44.10;;;28.15;;
61471;SDS011;47337;54.068;12.114;2023-09-12T07:20:57;41.17;;;28.40;;
61471;SDS011;47337;54.068;12.114;2023-09-12T07:23:23;42.38;;;27.40;;
61471;SDS011;47337;54.068;12.114;2023-09-12T07:25:48;38.67;;;27.98;;
61471;SDS011;47337;54.068;12.114;2023-09-12T07:28:13;42.65;;;28.27;;
61471;SDS011;47337;54.068;12.114;2023-09-12T07:30:41;43.03;;;28.55;;
61471;SDS011;47337;54.068;12.114;2023-09-12T07:33:10;37.22;;;27.65;;
61471;SDS011;47337;54.068;12.114;2023-09-12T07:35:35;40.58;;;27.77;;
61471;SDS011;47337;54.068;12.114;2023-09-12T07:38:01;37.08;;;27.13;;
61471;SDS011;47337;54.068;12.114;2023-09-12T07:40:26;43.03;;;27.90;;
61471;SDS011;47337;54.068;12.114;2023-09-12T07:42:51;39.00;;;27.73;;
61471;SDS011;47337;54.068;12.114;2023-09-12T07:45:17;33.25;;;25.60;;
61471;SDS011;47337;54.068;12.114;2023-09-12T07:47:43;40.00;;;26.98;;
61471;SDS011;47337;54.068;12.114;2023-09-12T07:50:08;38.90;;;26.88;;
61471;SDS011;47337;54.068;12.114;2023-09-12T07:52:34;36.42;;;27.20;;
61471;SDS011;47337;54.068;12.114;2023-09-12T07:55:04;35.40;;;26.08;;
61471;SDS011;47337;54.068;12.114;2023-09-12T07:57:30;35.97;;;26.33;;
61471;SDS011;47337;54.068;12.114;2023-09-12T07:59:58;35.95;;;26.27;;
61471;SDS011;47337;54.068;12.114;2023-09-12T08:02:23;34.10;;;25.38;;
61471;SDS011;47337;54.068;12.114;2023-09-12T08:04:49;40.55;;;25.70;;
61471;SDS011;47337;54.068;12.114;2023-09-12T08:07:24;34.25;;;24.08;;
61471;SDS011;47337;54.068;12.114;2023-09-12T08:09:55;36.05;;;24.65;;
61471;SDS011;47337;54.068;12.114;2023-09-12T08:12:23;36.78;;;23.15;;
61471;SDS011;47337;54.068;12.114;2023-09-12T08:14:49;30.60;;;22.50;;
61471;SDS011;47337;54.068;12.114;2023-09-12T08:17:15;30.08;;;22.85;;
61471;SDS011;47337;54.068;12.114;2023-09-12T08:19:41;33.78;;;22.20;;
61471;SDS011;47337;54.068;12.114;2023-09-12T08:22:07;31.02;;;24.23;;
61471;SDS011;47337;54.068;12.114;2023-09-12T08:24:34;29.08;;;21.48;;
61471;SDS011;47337;54.068;12.114;2023-09-12T08:27:00;33.08;;;22.60;;
61471;SDS011;47337;54.068;12.114;2023-09-12T08:29:27;30.08;;;21.38;;
61471;SDS011;47337;54.068;12.114;2023-09-12T08:31:53;33.92;;;22.02;;
61471;SDS011;47337;54.068;12.114;2023-09-12T08:34:19;33.28;;;23.25;;
61471;SDS011;47337;54.068;12.114;2023-09-12T08:36:45;33.58;;;23.35;;
61471;SDS011;47337;54.068;12.114;2023-09-12T08:39:12;32.75;;;24.80;;
61471;SDS011;47337;54.068;12.114;2023-09-12T08:41:41;36.75;;;24.88;;
61471;SDS011;47337;54.068;12.114;2023-09-12T08:44:11;34.47;;;25.20;;
61471;SDS011;47337;54.068;12.114;2023-09-12T08:46:37;34.05;;;22.65;;
61471;SDS011;47337;54.068;12.114;2023-09-12T08:49:04;33.00;;;23.75;;
61471;SDS011;47337;54.068;12.114;2023-09-12T08:51:31;34.70;;;24.92;;
61471;SDS011;47337;54.068;12.114;2023-09-12T08:53:57;30.83;;;22.17;;
61471;SDS011;47337;54.068;12.114;2023-09-12T08:56:23;25.98;;;21.83;;
61471;SDS011;47337;54.068;12.114;2023-09-12T08:58:49;27.45;;;20.35;;
61471;SDS011;47337;54.068;12.114;2023-09-12T09:01:16;27.75;;;21.05;;
61471;SDS011;47337;54.068;12.114;2023-09-12T09:03:46;30.15;;;19.48;;
61471;SDS011;47337;54.068;12.114;2023-09-12T09:06:13;24.42;;;17.83;;
61471;SDS011;47337;54.068;12.114;2023-09-12T09:08:43;22.40;;;18.15;;
61471;SDS011;47337;54.068;12.114;2023-09-12T09:11:10;22.33;;;17.98;;
61471;SDS011;47337;54.068;12.114;2023-09-12T09:13:35;22.52;;;16.27;;
61471;SDS011;47337;54.068;12.114;2023-09-12T09:18:56;10.20;;;7.00;;
61471;SDS011;47337;54.068;12.114;2023-09-12T09:21:23;8.10;;;6.78;;
61471;SDS011;47337;54.068;12.114;2023-09-12T09:23:54;10.00;;;7.35;;
61471;SDS011;47337;54.068;12.114;2023-09-12T09:26:20;7.85;;;6.00;;
61471;SDS011;47337;54.068;12.114;2023-09-12T09:29:01;9.63;;;6.95;;
61471;SDS011;47337;54.068;12.114;2023-09-12T09:31:31;11.48;;;6.53;;
61471;SDS011;47337;54.068;12.114;2023-09-12T09:33:58;6.63;;;6.00;;
61471;SDS011;47337;54.068;12.114;2023-09-12T09:36:27;7.80;;;7.00;;
61471;SDS011;47337;54.068;12.114;2023-09-12T09:38:54;8.93;;;7.70;;
61471;SDS011;47337;54.068;12.114;2023-09-12T09:41:21;10.93;;;8.05;;
61471;SDS011;47337;54.068;12.114;2023-09-12T09:43:50;13.43;;;9.05;;
61471;SDS011;47337;54.068;12.114;2023-09-12T09:46:16;14.77;;;9.57;;
61471;SDS011;47337;54.068;12.114;2023-09-12T09:48:51;11.32;;;8.55;;
61471;SDS011;47337;54.068;12.114;2023-09-12T09:51:17;14.57;;;10.30;;
61471;SDS011;47337;54.068;12.114;2023-09-12T09:53:42;12.18;;;8.77;;
61471;SDS011;47337;54.068;12.114;2023-09-12T09:56:12;10.95;;;8.05;;
61471;SDS011;47337;54.068;12.114;2023-09-12T09:58:42;10.57;;;7.97;;
61471;SDS011;47337;54.068;12.114;2023-09-12T10:01:13;8.20;;;6.95;;
61471;SDS011;47337;54.068;12.114;2023-09-12T10:03:43;11.35;;;8.13;;
61471;SDS011;47337;54.068;12.114;2023-09-12T10:06:10;9.07;;;7.72;;
61471;SDS011;47337;54.068;12.114;2023-09-12T10:08:38;12.25;;;7.97;;
61471;SDS011;47337;54.068;12.114;2023-09-12T10:11:05;9.82;;;7.93;;
61471;SDS011;47337;54.068;12.114;2023-09-12T10:13:32;13.00;;;9.73;;
61471;SDS011;47337;54.068;12.114;2023-09-12T10:16:03;15.02;;;10.23;;
61471;SDS011;47337;54.068;12.114;2023-09-12T10:18:37;13.20;;;10.00;;
61471;SDS011;47337;54.068;12.114;2023-09-12T10:21:10;12.82;;;10.15;;
61471;SDS011;47337;54.068;12.114;2023-09-12T10:23:46;14.63;;;10.75;;
61471;SDS011;47337;54.068;12.114;2023-09-12T10:26:15;16.23;;;9.73;;
61471;SDS011;47337;54.068;12.114;2023-09-12T10:28:44;16.15;;;10.32;;
61471;SDS011;47337;54.068;12.114;2023-09-12T10:31:12;13.80;;;10.70;;
61471;SDS011;47337;54.068;12.114;2023-09-12T10:33:38;14.02;;;10.77;;
61471;SDS011;47337;54.068;12.114;2023-09-12T10:36:04;14.73;;;10.32;;
61471;SDS011;47337;54.068;12.114;2023-09-12T10:38:32;13.30;;;10.38;;
61471;SDS011;47337;54.068;12.114;2023-09-12T10:41:00;15.05;;;11.13;;
61471;SDS011;47337;54.068;12.114;2023-09-12T10:43:26;13.63;;;11.65;;
61471;SDS011;47337;54.068;12.114;2023-09-12T10:45:58;14.80;;;11.00;;
61471;SDS011;47337;54.068;12.114;2023-09-12T10:48:27;16.45;;;12.50;;
61471;SDS011;47337;54.068;12.114;2023-09-12T10:50:56;16.88;;;13.45;;
61471;SDS011;47337;54.068;12.114;2023-09-12T10:53:26;19.73;;;14.70;;
61471;SDS011;47337;54.068;12.114;2023-09-12T10:56:01;23.52;;;15.45;;
61471;SDS011;47337;54.068;12.114;2023-09-12T11:01:35;20.55;;;14.80;;
61471;SDS011;47337;54.068;12.114;2023-09-12T11:06:49;20.85;;;15.40;;
61471;SDS011;47337;54.068;12.114;2023-09-12T11:09:25;24.38;;;17.73;;
61471;SDS011;47337;54.068;12.114;2023-09-12T11:14:21;24.05;;;17.67;;
61471;SDS011;47337;54.068;12.114;2023-09-12T11:19:49;22.60;;;17.70;;
61471;SDS011;47337;54.068;12.114;2023-09-12T11:22:36;20.20;;;17.00;;
61471;SDS011;47337;54.068;12.114;2023-09-12T11:25:16;21.77;;;16.35;;
61471;SDS011;47337;54.068;12.114;2023-09-12T11:32:45;21.38;;;14.85;;
61471;SDS011;47337;54.068;12.114;2023-09-12T11:35:13;18.30;;;14.35;;
61471;SDS011;47337;54.068;12.114;2023-09-12T11:37:39;16.95;;;13.38;;
61471;SDS011;47337;54.068;12.114;2023-09-12T11:42:41;16.50;;;12.60;;
61471;SDS011;47337;54.068;12.114;2023-09-12T11:45:11;18.80;;;14.93;;
61471;SDS011;47337;54.068;12.114;2023-09-12T11:47:41;22.23;;;16.50;;
61471;SDS011;47337;54.068;12.114;2023-09-12T11:50:12;17.98;;;16.10;;
61471;SDS011;47337;54.068;12.114;2023-09-12T11:53:01;17.95;;;15.45;;
61471;SDS011;47337;54.068;12.114;2023-09-12T11:55:51;20.48;;;15.10;;
61471;SDS011;47337;54.068;12.114;2023-09-12T11:58:18;18.00;;;13.95;;
61471;SDS011;47337;54.068;12.114;2023-09-12T12:00:45;16.20;;;13.05;;
61471;SDS011;47337;54.068;12.114;2023-09-12T12:03:18;17.63;;;11.73;;
61471;SDS011;47337;54.068;12.114;2023-09-12T12:05:46;13.93;;;11.82;;
61471;SDS011;47337;54.068;12.114;2023-09-12T12:08:13;15.82;;;10.88;;
61471;SDS011;47337;54.068;12.114;2023-09-12T12:10:39;15.20;;;10.95;;
61471;SDS011;47337;54.068;12.114;2023-09-12T12:13:06;15.73;;;10.50;;
61471;SDS011;47337;54.068;12.114;2023-09-12T12:15:35;13.10;;;9.52;;
61471;SDS011;47337;54.068;12.114;2023-09-12T12:18:01;14.07;;;10.00;;
61471;SDS011;47337;54.068;12.114;2023-09-12T12:20:28;13.32;;;10.38;;
61471;SDS011;47337;54.068;12.114;2023-09-12T12:22:55;14.02;;;10.45;;
61471;SDS011;47337;54.068;12.114;2023-09-12T12:25:21;16.27;;;11.18;;
61471;SDS011;47337;54.068;12.114;2023-09-12T12:27:47;13.23;;;10.60;;
61471;SDS011;47337;54.068;12.114;2023-09-12T12:30:15;14.18;;;10.63;;
61471;SDS011;47337;54.068;12.114;2023-09-12T12:32:40;12.98;;;9.70;;
61471;SDS011;47337;54.068;12.114;2023-09-12T12:35:07;15.88;;;8.95;;
61471;SDS011;47337;54.068;12.114;2023-09-12T12:37:41;11.73;;;8.25;;
61471;SDS011;47337;54.068;12.114;2023-09-12T12:40:11;12.70;;;8.82;;
61471;SDS011;47337;54.068;12.114;2023-09-12T12:42:41;11.85;;;8.85;;
61471;SDS011;47337;54.068;12.114;2023-09-12T12:45:12;13.98;;;10.13;;
61471;SDS011;47337;54.068;12.114;2023-09-12T12:47:39;14.15;;;9.80;;
61471;SDS011;47337;54.068;12.114;2023-09-12T12:50:10;14.07;;;9.90;;
61471;SDS011;47337;54.068;12.114;2023-09-12T12:52:36;12.00;;;9.07;;
61471;SDS011;47337;54.068;12.114;2023-09-12T12:55:03;13.50;;;8.95;;
61471;SDS011;47337;54.068;12.114;2023-09-12T12:57:32;13.02;;;8.45;;
61471;SDS011;47337;54.068;12.114;2023-09-12T13:00:01;10.35;;;8.30;;
61471;SDS011;47337;54.068;12.114;2023-09-12T13:02:28;9.75;;;7.07;;
61471;SDS011;47337;54.068;12.114;2023-09-12T13:04:53;15.18;;;8.23;;
61471;SDS011;47337;54.068;12.114;2023-09-12T13:07:18;10.27;;;7.25;;
61471;SDS011;47337;54.068;12.114;2023-09-12T13:09:44;10.68;;;8.38;;
61471;SDS011;47337;54.068;12.114;2023-09-12T13:12:12;13.88;;;7.97;;
61471;SDS011;47337;54.068;12.114;2023-09-12T13:14:39;8.63;;;7.72;;
61471;SDS011;47337;54.068;12.114;2023-09-12T13:17:09;9.38;;;7.50;;
61471;SDS011;47337;54.068;12.114;2023-09-12T13:19:36;9.00;;;7.30;;
61471;SDS011;47337;54.068;12.114;2023-09-12T13:22:04;13.55;;;7.82;;
61471;SDS011;47337;54.068;12.114;2023-09-12T13:24:30;11.32;;;8.23;;
61471;SDS011;47337;54.068;12.114;2023-09-12T13:26:55;11.75;;;8.45;;
61471;SDS011;47337;54.068;12.114;2023-09-12T13:29:20;10.88;;;7.32;;
61471;SDS011;47337;54.068;12.114;2023-09-12T13:31:46;8.75;;;6.90;;
61471;SDS011;47337;54.068;12.114;2023-09-12T13:34:11;10.25;;;7.45;;
61471;SDS011;47337;54.068;12.114;2023-09-12T13:36:37;9.27;;;6.85;;
61471;SDS011;47337;54.068;12.114;2023-09-12T13:39:02;9.18;;;6.72;;
61471;SDS011;47337;54.068;12.114;2023-09-12T13:41:33;9.55;;;6.88;;
61471;SDS011;47337;54.068;12.114;2023-09-12T13:43:59;8.40;;;6.80;;
61471;SDS011;47337;54.068;12.114;2023-09-12T13:46:24;7.80;;;6.80;;
61471;SDS011;47337;54.068;12.114;2023-09-12T13:48:49;9.38;;;6.90;;
61471;SDS011;47337;54.068;12.114;2023-09-12T13:51:19;8.55;;;7.00;;
61471;SDS011;47337;54.068;12.114;2023-09-12T13:53:45;9.07;;;6.90;;
61471;SDS011;47337;54.068;12.114;2023-09-12T13:56:13;9.05;;;6.55;;
61471;SDS011;47337;54.068;12.114;2023-09-12T13:58:38;10.50;;;7.45;;
61471;SDS011;47337;54.068;12.114;2023-09-12T14:01:03;10.23;;;7.20;;
61471;SDS011;47337;54.068;12.114;2023-09-12T14:03:29;9.95;;;6.95;;
61471;SDS011;47337;54.068;12.114;2023-09-12T14:05:54;8.15;;;6.55;;
61471;SDS011;47337;54.068;12.114;2023-09-12T14:08:20;13.70;;;7.30;;
61471;SDS011;47337;54.068;12.114;2023-09-12T14:10:45;10.50;;;7.45;;
61471;SDS011;47337;54.068;12.114;2023-09-12T14:13:10;8.60;;;7.05;;
61471;SDS011;47337;54.068;12.114;2023-09-12T14:15:38;8.98;;;6.53;;
61471;SDS011;47337;54.068;12.114;2023-09-12T14:18:03;10.45;;;6.88;;
61471;SDS011;47337;54.068;12.114;2023-09-12T14:20:29;10.65;;;7.15;;
61471;SDS011;47337;54.068;12.114;2023-09-12T14:22:54;10.55;;;7.28;;
61471;SDS011;47337;54.068;12.114;2023-09-12T14:25:21;10.00;;;7.25;;
61471;SDS011;47337;54.068;12.114;2023-09-12T14:27:47;8.80;;;6.88;;
61471;SDS011;47337;54.068;12.114;2023-09-12T14:30:15;8.95;;;6.63;;
61471;SDS011;47337;54.068;12.114;2023-09-12T14:32:40;9.48;;;7.65;;
61471;SDS011;47337;54.068;12.114;2023-09-12T14:35:05;13.38;;;7.93;;
61471;SDS011;47337;54.068;12.114;2023-09-12T14:37:32;9.45;;;7.60;;
61471;SDS011;47337;54.068;12.114;2023-09-12T14:40:00;11.32;;;7.88;;